Time;durP1;ratioP1;P1;durP2;ratioP2;P2;SDS_P1;SDS_P2;PMS_P1;PMS_P2;Temp;Humidity;BMP_temperature;BMP_pressure;BME280_temperature;BME280_humidity;BME280_pressure;Samples;Min_cycle;Max_cycle;Signal;HPM_P1;HPM_P2
2023/11/09 00:00:03;;;;;;;5.63;2.90;;;;;;;;;;5035108;28;20786;-69
2023/11/09 00:02:28;;;;;;;5.70;2.97;;;;;;;;;;5036799;28;20527;-70
2023/11/09 00:04:54;;;;;;;6.03;3.03;;;;;;;;;;5030520;28;20108;-70
2023/11/09 00:07:21;;;;;;;6.35;3.38;;;;;;;;;;5031890;28;20025;-69
2023/11/09 00:09:47;;;;;;;6.05;3.05;;;;;;;;;;5033850;28;20347;-69
2023/11/09 00:12:12;;;;;;;6.25;3.10;;;;;;;;;;5039643;28;20039;-69
2023/11/09 00:14:40;;;;;;;6.28;2.72;;;;;;;;;;5038482;28;20012;-68
2023/11/09 00:17:08;;;;;;;6.55;2.92;;;;;;;;;;5032057;28;20021;-69
2023/11/09 00:19:33;;;;;;;6.50;3.00;;;;;;;;;;5035345;28;20099;-68
2023/11/09 00:22:01;;;;;;;7.00;3.10;;;;;;;;;;5030472;28;20045;-69
2023/11/09 00:24:26;;;;;;;6.88;3.05;;;;;;;;;;5031671;28;20029;-69
2023/11/09 00:26:52;;;;;;;5.80;2.83;;;;;;;;;;5034844;28;20147;-70
2023/11/09 00:29:17;;;;;;;6.03;2.70;;;;;;;;;;5035958;28;20372;-70
2023/11/09 00:31:42;;;;;;;5.55;2.60;;;;;;;;;;5035298;28;20016;-70
2023/11/09 00:34:10;;;;;;;5.95;2.55;;;;;;;;;;5033731;28;20105;-70
2023/11/09 00:36:38;;;;;;;5.72;2.95;;;;;;;;;;5027370;28;20021;-70
2023/11/09 00:39:04;;;;;;;6.10;2.58;;;;;;;;;;5035695;28;20090;-70
2023/11/09 00:41:29;;;;;;;5.13;2.50;;;;;;;;;;5031926;28;20036;-68
2023/11/09 00:43:57;;;;;;;5.97;2.70;;;;;;;;;;5035727;28;20025;-69
2023/11/09 00:46:22;;;;;;;5.70;2.63;;;;;;;;;;5034563;28;20036;-69
2023/11/09 00:48:50;;;;;;;5.35;2.70;;;;;;;;;;5032977;28;20342;-67
2023/11/09 00:51:17;;;;;;;5.68;2.75;;;;;;;;;;5031597;28;20032;-70
2023/11/09 00:53:43;;;;;;;5.25;2.50;;;;;;;;;;5029592;28;20029;-69
2023/11/09 00:56:08;;;;;;;5.65;2.53;;;;;;;;;;5027393;28;20461;-69
2023/11/09 00:58:33;;;;;;;5.47;2.42;;;;;;;;;;5036481;28;20057;-68
2023/11/09 01:00:59;;;;;;;7.40;2.70;;;;;;;;;;5023344;28;20053;-70
2023/11/09 01:03:24;;;;;;;5.38;2.47;;;;;;;;;;5036923;28;20107;-69
2023/11/09 01:05:50;;;;;;;5.55;2.42;;;;;;;;;;5028693;28;20033;-67
2023/11/09 01:08:17;;;;;;;4.85;2.53;;;;;;;;;;5032667;28;20014;-70
2023/11/09 01:10:43;;;;;;;6.68;2.42;;;;;;;;;;5033720;28;20124;-69
2023/11/09 01:13:09;;;;;;;5.80;2.40;;;;;;;;;;5032997;28;20023;-69
2023/11/09 01:15:35;;;;;;;7.57;2.78;;;;;;;;;;5029094;28;20080;-69
2023/11/09 01:18:05;;;;;;;5.22;2.45;;;;;;;;;;5027375;28;20017;-70
2023/11/09 01:20:33;;;;;;;;;;;;;;;;;;5028115;28;20385;-68
2023/11/09 01:22:58;;;;;;;5.15;2.22;;;;;;;;;;5028914;28;19927;-70
2023/11/09 01:25:23;;;;;;;5.28;2.47;;;;;;;;;;5031285;28;20021;-68
2023/11/09 01:27:49;;;;;;;6.43;2.40;;;;;;;;;;5031046;28;20027;-70
2023/11/09 01:30:14;;;;;;;6.07;2.53;;;;;;;;;;5027213;28;20110;-70
2023/11/09 01:32:39;;;;;;;5.45;2.30;;;;;;;;;;5037418;28;20028;-69
2023/11/09 01:35:05;;;;;;;6.40;2.42;;;;;;;;;;5036878;28;20044;-69
2023/11/09 01:37:34;;;;;;;5.72;2.55;;;;;;;;;;5032140;28;20136;-69
2023/11/09 01:39:59;;;;;;;5.20;2.40;;;;;;;;;;5026734;28;20016;-69
2023/11/09 01:42:27;;;;;;;5.18;2.40;;;;;;;;;;5032244;28;20448;-69
2023/11/09 01:44:52;;;;;;;5.82;2.03;;;;;;;;;;5026206;28;20033;-69
2023/11/09 01:47:18;;;;;;;7.72;2.20;;;;;;;;;;5031452;28;20949;-67
2023/11/09 01:49:43;;;;;;;6.85;2.47;;;;;;;;;;5031011;28;20025;-67
2023/11/09 01:52:08;;;;;;;5.07;2.08;;;;;;;;;;5025245;28;20029;-69
2023/11/09 01:54:35;;;;;;;5.68;2.03;;;;;;;;;;5033485;28;20013;-68
2023/11/09 01:57:01;;;;;;;5.32;2.20;;;;;;;;;;5029410;28;20438;-67
2023/11/09 01:59:27;;;;;;;5.32;2.08;;;;;;;;;;5037495;28;20032;-67
2023/11/09 02:01:55;;;;;;;4.68;2.10;;;;;;;;;;5024672;28;21146;-69
2023/11/09 02:04:21;;;;;;;5.50;2.30;;;;;;;;;;5028420;28;20013;-66
2023/11/09 02:06:46;;;;;;;5.75;2.17;;;;;;;;;;5035513;28;20028;-69
2023/11/09 02:09:15;;;;;;;5.28;1.92;;;;;;;;;;5032583;28;20023;-67
2023/11/09 02:11:40;;;;;;;5.30;2.10;;;;;;;;;;5031009;28;20029;-69
2023/11/09 02:14:07;;;;;;;4.50;1.95;;;;;;;;;;5031733;28;20013;-68
2023/11/09 02:16:33;;;;;;;6.72;2.20;;;;;;;;;;5034104;28;20033;-67
2023/11/09 02:18:58;;;;;;;5.53;2.00;;;;;;;;;;5029152;28;20046;-68
2023/11/09 02:21:25;;;;;;;4.50;2.00;;;;;;;;;;5037745;28;20033;-67
2023/11/09 02:23:55;;;;;;;6.63;1.95;;;;;;;;;;5031021;28;20553;-67
2023/11/09 02:26:20;;;;;;;5.43;2.00;;;;;;;;;;5029115;28;20071;-69
2023/11/09 02:28:48;;;;;;;4.90;2.00;;;;;;;;;;5031183;28;20100;-69
2023/11/09 02:31:14;;;;;;;5.15;2.00;;;;;;;;;;5031297;28;20040;-68
2023/11/09 02:33:39;;;;;;;5.68;1.80;;;;;;;;;;5038629;28;20113;-68
2023/11/09 02:36:04;;;;;;;4.97;2.00;;;;;;;;;;5035774;28;20016;-67
2023/11/09 02:38:30;;;;;;;6.43;1.90;;;;;;;;;;5028810;28;20044;-69
2023/11/09 02:40:56;;;;;;;8.02;1.90;;;;;;;;;;5035011;28;20055;-68
2023/11/09 02:43:21;;;;;;;4.47;1.92;;;;;;;;;;5027838;28;20017;-69
2023/11/09 02:45:47;;;;;;;5.28;2.05;;;;;;;;;;5026799;28;20232;-69
2023/11/09 02:48:12;;;;;;;4.57;1.80;;;;;;;;;;5027115;28;20038;-69
2023/11/09 02:50:42;;;;;;;4.43;1.65;;;;;;;;;;5035568;28;20017;-67
2023/11/09 02:53:07;;;;;;;4.00;1.60;;;;;;;;;;5028598;28;20036;-69
2023/11/09 02:55:33;;;;;;;4.30;1.50;;;;;;;;;;5031245;28;20012;-69
2023/11/09 02:57:58;;;;;;;4.63;1.73;;;;;;;;;;5027842;28;20492;-69
2023/11/09 03:00:23;;;;;;;4.60;1.80;;;;;;;;;;5028243;28;20021;-66
2023/11/09 03:02:48;;;;;;;4.15;1.60;;;;;;;;;;5033912;28;20013;-67
2023/11/09 03:05:21;;;;;;;4.00;1.38;;;;;;;;;;5034796;28;20056;-69
2023/11/09 03:07:46;;;;;;;5.07;1.65;;;;;;;;;;5029487;28;20031;-68
2023/11/09 03:10:11;;;;;;;4.20;1.70;;;;;;;;;;5031544;28;20025;-69
2023/11/09 03:12:39;;;;;;;4.05;1.50;;;;;;;;;;5033533;28;20115;-70
2023/11/09 03:15:09;;;;;;;4.43;1.77;;;;;;;;;;5030356;28;20364;-68
2023/11/09 03:17:39;;;;;;;4.40;1.40;;;;;;;;;;5025421;28;20017;-68
2023/11/09 03:20:08;;;;;;;3.92;1.30;;;;;;;;;;5031567;28;20512;-67
2023/11/09 03:22:35;;;;;;;6.30;1.60;;;;;;;;;;5035025;28;20023;-69
2023/11/09 03:25:01;;;;;;;3.90;1.50;;;;;;;;;;5031155;28;20071;-68
2023/11/09 03:27:26;;;;;;;3.92;1.67;;;;;;;;;;5025284;28;20107;-70
2023/11/09 03:29:51;;;;;;;3.70;1.27;;;;;;;;;;5048185;28;20419;-68
2023/11/09 03:32:17;;;;;;;5.13;1.52;;;;;;;;;;5037545;28;20017;-67
2023/11/09 03:34:42;;;;;;;3.72;1.45;;;;;;;;;;5024667;28;20025;-69
2023/11/09 03:37:07;;;;;;;4.25;1.50;;;;;;;;;;5026284;28;20117;-69
2023/11/09 03:39:35;;;;;;;4.90;1.50;;;;;;;;;;5025884;28;20064;-67
2023/11/09 03:42:01;;;;;;;7.50;1.65;;;;;;;;;;5030444;28;20032;-69
2023/11/09 03:44:31;;;;;;;5.25;1.67;;;;;;;;;;5028618;28;20048;-69
2023/11/09 03:46:56;;;;;;;4.78;1.60;;;;;;;;;;5028961;28;20044;-69
2023/11/09 03:49:22;;;;;;;5.30;2.00;;;;;;;;;;5030491;28;20871;-69
2023/11/09 03:51:47;;;;;;;4.40;1.50;;;;;;;;;;5027041;28;20325;-69
2023/11/09 03:54:15;;;;;;;3.92;1.40;;;;;;;;;;5026210;28;20264;-67
2023/11/09 03:56:43;;;;;;;4.03;1.75;;;;;;;;;;5031215;28;20025;-67
2023/11/09 03:59:09;;;;;;;5.13;1.60;;;;;;;;;;5027000;28;20025;-68
2023/11/09 04:01:37;;;;;;;4.40;1.90;;;;;;;;;;5027000;28;20396;-69
2023/11/09 04:04:05;;;;;;;4.70;1.60;;;;;;;;;;5026865;28;20110;-67
2023/11/09 04:06:34;;;;;;;4.50;1.70;;;;;;;;;;5028077;28;20656;-68
2023/11/09 04:09:00;;;;;;;3.55;1.25;;;;;;;;;;5031590;28;20086;-69
2023/11/09 04:11:26;;;;;;;4.00;1.60;;;;;;;;;;5035482;28;20531;-69
2023/11/09 04:13:51;;;;;;;4.22;1.40;;;;;;;;;;5029686;28;20032;-71
2023/11/09 04:16:19;;;;;;;4.60;1.63;;;;;;;;;;5022347;28;20021;-70
2023/11/09 04:18:46;;;;;;;4.70;1.40;;;;;;;;;;5027070;28;20699;-69
2023/11/09 04:21:11;;;;;;;4.18;1.60;;;;;;;;;;5025477;28;20143;-69
2023/11/09 04:23:42;;;;;;;4.15;1.52;;;;;;;;;;5034283;28;20108;-69
2023/11/09 04:26:12;;;;;;;4.13;1.55;;;;;;;;;;5027044;28;20702;-68
2023/11/09 04:28:38;;;;;;;5.30;2.00;;;;;;;;;;5027573;28;20021;-69
2023/11/09 04:31:06;;;;;;;4.53;1.85;;;;;;;;;;5035484;28;20857;-69
2023/11/09 04:33:31;;;;;;;4.68;1.80;;;;;;;;;;5035324;28;20039;-69
2023/11/09 04:36:05;;;;;;;6.45;2.00;;;;;;;;;;5035523;28;20032;-70
2023/11/09 04:38:32;;;;;;;4.90;1.85;;;;;;;;;;5032189;28;20392;-71
2023/11/09 04:41:05;;;;;;;4.63;1.90;;;;;;;;;;5037264;28;20028;-71
2023/11/09 04:43:33;;;;;;;4.97;1.70;;;;;;;;;;5039761;28;20656;-71
2023/11/09 04:46:05;;;;;;;4.70;1.92;;;;;;;;;;5034300;28;20013;-70
2023/11/09 04:48:43;;;;;;;4.22;1.60;;;;;;;;;;5032349;28;20508;-70
2023/11/09 04:51:09;;;;;;;5.25;1.80;;;;;;;;;;5039809;28;20028;-70
2023/11/09 04:53:41;;;;;;;4.72;1.83;;;;;;;;;;5037119;28;20536;-68
2023/11/09 04:56:19;;;;;;;4.95;1.55;;;;;;;;;;5032891;28;20029;-68
2023/11/09 04:58:47;;;;;;;4.55;1.50;;;;;;;;;;5036899;28;20021;-70
2023/11/09 05:06:55;;;;;;;4.97;1.65;;;;;;;;;;5033437;28;20417;-72
2023/11/09 05:09:27;;;;;;;4.32;1.58;;;;;;;;;;5033513;28;20017;-72
2023/11/09 05:11:53;;;;;;;4.15;1.60;;;;;;;;;;5041681;28;20028;-71
2023/11/09 05:14:19;;;;;;;4.63;1.80;;;;;;;;;;5032720;28;20035;-71
2023/11/09 05:16:44;;;;;;;5.25;1.90;;;;;;;;;;5037468;28;20481;-71
2023/11/09 05:19:10;;;;;;;5.22;2.00;;;;;;;;;;5028258;28;20079;-71
2023/11/09 05:21:38;;;;;;;5.28;2.10;;;;;;;;;;5030458;28;20032;-73
2023/11/09 05:24:03;;;;;;;4.55;2.03;;;;;;;;;;5035710;28;20098;-76
2023/11/09 05:26:32;;;;;;;4.68;2.30;;;;;;;;;;5027084;28;20061;-73
2023/11/09 05:28:58;;;;;;;5.00;1.98;;;;;;;;;;5036315;28;20012;-73
2023/11/09 05:31:23;;;;;;;4.97;2.20;;;;;;;;;;5032171;28;20066;-73
2023/11/09 05:33:50;;;;;;;5.68;2.38;;;;;;;;;;5036241;28;20029;-73
2023/11/09 05:36:18;;;;;;;5.00;2.10;;;;;;;;;;5046668;28;20021;-73
2023/11/09 05:38:44;;;;;;;6.43;2.10;;;;;;;;;;5027655;28;20125;-73
2023/11/09 05:41:10;;;;;;;4.68;1.90;;;;;;;;;;5032094;28;20024;-73
2023/11/09 05:43:36;;;;;;;4.57;1.63;;;;;;;;;;5032849;28;20483;-73
2023/11/09 05:46:01;;;;;;;5.22;1.55;;;;;;;;;;5036926;28;20032;-74
2023/11/09 05:48:26;;;;;;;4.80;1.80;;;;;;;;;;5025165;28;20381;-76
2023/11/09 05:50:52;;;;;;;5.22;1.95;;;;;;;;;;5028675;28;20595;-74
2023/11/09 05:53:18;;;;;;;4.22;1.60;;;;;;;;;;5034657;28;20020;-74
2023/11/09 05:55:46;;;;;;;4.53;1.65;;;;;;;;;;5029794;28;20029;-74
2023/11/09 05:58:11;;;;;;;4.82;1.77;;;;;;;;;;5030986;28;20016;-74
2023/11/09 06:00:38;;;;;;;3.97;1.38;;;;;;;;;;5031795;28;20041;-73
2023/11/09 06:03:03;;;;;;;4.57;1.60;;;;;;;;;;5033624;28;20086;-74
2023/11/09 06:05:28;;;;;;;5.07;1.60;;;;;;;;;;5040166;28;20539;-73
2023/11/09 06:07:56;;;;;;;4.00;1.48;;;;;;;;;;5033537;28;20047;-73
2023/11/09 06:10:22;;;;;;;3.72;1.52;;;;;;;;;;5030494;28;20029;-72
2023/11/09 06:12:49;;;;;;;4.43;1.60;;;;;;;;;;5031837;28;20130;-72
2023/11/09 06:15:15;;;;;;;4.47;1.50;;;;;;;;;;5033419;28;20041;-72
2023/11/09 06:17:42;;;;;;;7.82;1.60;;;;;;;;;;5028986;28;20135;-71
2023/11/09 06:20:10;;;;;;;5.00;1.90;;;;;;;;;;5033629;28;20124;-72
2023/11/09 06:22:36;;;;;;;4.32;1.60;;;;;;;;;;5040049;28;20028;-72
2023/11/09 06:25:04;;;;;;;5.22;1.67;;;;;;;;;;5033993;28;20774;-72
2023/11/09 06:27:29;;;;;;;6.30;1.40;;;;;;;;;;5034601;28;20017;-71
2023/11/09 06:29:58;;;;;;;4.50;1.52;;;;;;;;;;5029051;28;20029;-71
2023/11/09 06:32:25;;;;;;;4.13;1.30;;;;;;;;;;5027951;28;20039;-71
2023/11/09 06:34:51;;;;;;;4.03;1.35;;;;;;;;;;5030292;28;20021;-71
2023/11/09 06:37:16;;;;;;;4.57;1.55;;;;;;;;;;5031000;28;20036;-71
2023/11/09 06:39:46;;;;;;;5.05;1.60;;;;;;;;;;5025388;28;20020;-71
2023/11/09 06:42:15;;;;;;;3.58;1.27;;;;;;;;;;5034950;28;20115;-70
2023/11/09 06:44:41;;;;;;;4.18;1.40;;;;;;;;;;5029792;28;20040;-70
2023/11/09 06:47:09;;;;;;;4.82;1.50;;;;;;;;;;5030444;28;20032;-71
2023/11/09 06:49:35;;;;;;;5.75;1.50;;;;;;;;;;5026948;28;20021;-71
2023/11/09 06:52:02;;;;;;;4.20;1.50;;;;;;;;;;5026488;28;20028;-70
2023/11/09 06:54:29;;;;;;;5.13;1.60;;;;;;;;;;5029479;28;20098;-71
2023/11/09 06:56:54;;;;;;;4.18;1.50;;;;;;;;;;5028784;28;20028;-70
2023/11/09 06:59:22;;;;;;;3.80;1.45;;;;;;;;;;5030152;28;20013;-70
2023/11/09 07:01:47;;;;;;;4.32;1.60;;;;;;;;;;5029891;28;20135;-70
2023/11/09 07:04:13;;;;;;;4.32;1.45;;;;;;;;;;5028978;28;20052;-71
2023/11/09 07:06:43;;;;;;;4.13;1.40;;;;;;;;;;5062153;28;20036;-70
2023/11/09 07:09:09;;;;;;;;;;;;;;;;;;5028000;28;20055;-70
2023/11/09 07:11:37;;;;;;;3.92;1.40;;;;;;;;;;5034766;28;20370;-69
2023/11/09 07:14:02;;;;;;;4.38;1.67;;;;;;;;;;5037057;28;20063;-69
2023/11/09 07:16:27;;;;;;;4.32;1.48;;;;;;;;;;5026936;28;20025;-69
2023/11/09 07:18:53;;;;;;;7.22;1.70;;;;;;;;;;5030040;28;21419;-69
2023/11/09 07:21:20;;;;;;;4.93;1.90;;;;;;;;;;5039403;28;20040;-71
2023/11/09 07:23:50;;;;;;;4.75;1.85;;;;;;;;;;5029503;28;20033;-74
2023/11/09 07:26:15;;;;;;;4.28;1.70;;;;;;;;;;5025472;28;20021;-73
2023/11/09 07:28:41;;;;;;;6.50;1.98;;;;;;;;;;5032655;28;20020;-74
2023/11/09 07:31:06;;;;;;;5.22;1.83;;;;;;;;;;5031855;28;20571;-75
2023/11/09 07:33:31;;;;;;;5.03;2.10;;;;;;;;;;5031339;28;20040;-76
2023/11/09 07:35:59;;;;;;;5.03;2.03;;;;;;;;;;5031032;28;20032;-75
2023/11/09 07:38:27;;;;;;;5.20;1.70;;;;;;;;;;5033270;28;20107;-75
2023/11/09 07:40:53;;;;;;;6.25;1.92;;;;;;;;;;5025256;28;20029;-77
2023/11/09 07:43:21;;;;;;;5.35;1.50;;;;;;;;;;5027910;28;20025;-77
2023/11/09 07:45:47;;;;;;;3.97;1.30;;;;;;;;;;5032053;28;20036;-77
2023/11/09 07:48:12;;;;;;;4.38;1.60;;;;;;;;;;5031063;28;20087;-77
2023/11/09 07:50:38;;;;;;;3.95;1.42;;;;;;;;;;5024488;28;20027;-77
2023/11/09 07:53:07;;;;;;;5.18;1.55;;;;;;;;;;5029978;28;20032;-77
2023/11/09 07:55:32;;;;;;;4.57;1.25;;;;;;;;;;5026619;28;20114;-76
2023/11/09 07:58:08;;;;;;;4.53;1.40;;;;;;;;;;5031842;28;21257;-75
2023/11/09 08:00:36;;;;;;;4.85;1.52;;;;;;;;;;5032447;28;20797;-74
2023/11/09 08:03:01;;;;;;;5.25;1.30;;;;;;;;;;5031089;28;20033;-74
2023/11/09 08:05:29;;;;;;;3.72;1.30;;;;;;;;;;5030070;28;20035;-74
2023/11/09 08:07:54;;;;;;;4.63;1.33;;;;;;;;;;5032976;28;20020;-74
2023/11/09 08:10:21;;;;;;;3.97;1.20;;;;;;;;;;5027700;28;20032;-73
2023/11/09 08:12:47;;;;;;;4.13;1.40;;;;;;;;;;5036679;28;20024;-73
2023/11/09 08:15:13;;;;;;;4.65;1.40;;;;;;;;;;5033457;28;20064;-73
2023/11/09 08:17:39;;;;;;;3.50;1.17;;;;;;;;;;5036006;28;20020;-73
2023/11/09 08:20:07;;;;;;;3.50;1.25;;;;;;;;;;5036858;28;20111;-73
2023/11/09 08:22:32;;;;;;;5.68;1.88;;;;;;;;;;5057837;28;20079;-73
2023/11/09 08:24:59;;;;;;;5.55;2.85;;;;;;;;;;5033831;28;20076;-73
2023/11/09 08:27:26;;;;;;;5.10;2.08;;;;;;;;;;5032040;28;20684;-73
2023/11/09 08:29:52;;;;;;;6.80;2.50;;;;;;;;;;5034460;28;20158;-74
2023/11/09 08:32:18;;;;;;;6.30;2.13;;;;;;;;;;5036561;28;20077;-74
2023/11/09 08:34:47;;;;;;;5.78;2.25;;;;;;;;;;5032303;28;20048;-73
2023/11/09 08:37:15;;;;;;;5.57;1.55;;;;;;;;;;5028179;28;20017;-74
2023/11/09 08:39:42;;;;;;;4.88;1.75;;;;;;;;;;5036839;28;20039;-73
2023/11/09 08:42:07;;;;;;;5.22;1.77;;;;;;;;;;5034645;28;20020;-73
2023/11/09 08:44:36;;;;;;;4.38;1.40;;;;;;;;;;5030361;28;20364;-73
2023/11/09 08:47:01;;;;;;;5.22;1.42;;;;;;;;;;5028074;28;20445;-73
2023/11/09 08:49:27;;;;;;;3.83;1.40;;;;;;;;;;5030662;28;20704;-73
2023/11/09 08:51:53;;;;;;;5.03;1.38;;;;;;;;;;5037004;28;20025;-73
2023/11/09 08:54:18;;;;;;;6.30;1.60;;;;;;;;;;5038073;28;20049;-73
2023/11/09 08:56:44;;;;;;;5.95;1.75;;;;;;;;;;5025795;28;20419;-73
2023/11/09 08:59:11;;;;;;;4.32;1.40;;;;;;;;;;5036535;28;20202;-73
2023/11/09 09:01:39;;;;;;;4.68;1.40;;;;;;;;;;5031672;28;20436;-74
2023/11/09 09:04:04;;;;;;;3.30;1.15;;;;;;;;;;5032687;28;20029;-73
2023/11/09 09:06:31;;;;;;;4.50;1.23;;;;;;;;;;5033380;28;20941;-73
2023/11/09 09:08:56;;;;;;;3.67;1.20;;;;;;;;;;5027595;28;20480;-73
2023/11/09 09:11:21;;;;;;;5.20;1.17;;;;;;;;;;5034141;28;20032;-73
2023/11/09 09:13:47;;;;;;;3.50;1.10;;;;;;;;;;5030419;28;20517;-74
2023/11/09 09:16:15;;;;;;;5.25;2.38;;;;;;;;;;5033971;28;20041;-74
2023/11/09 09:18:45;;;;;;;5.50;2.72;;;;;;;;;;5036339;28;20050;-73
2023/11/09 09:21:10;;;;;;;4.60;1.83;;;;;;;;;;5025248;28;20100;-74
2023/11/09 09:23:37;;;;;;;4.47;1.50;;;;;;;;;;5042424;28;20471;-73
2023/11/09 09:26:03;;;;;;;4.28;1.75;;;;;;;;;;5033361;28;20030;-72
2023/11/09 09:28:28;;;;;;;3.97;1.67;;;;;;;;;;5034165;28;20020;-73
2023/11/09 09:30:56;;;;;;;4.72;1.95;;;;;;;;;;5030814;28;20016;-73
2023/11/09 09:33:24;;;;;;;4.88;2.20;;;;;;;;;;5035543;28;20781;-72
2023/11/09 09:35:50;;;;;;;6.35;3.10;;;;;;;;;;5033468;28;20036;-72
2023/11/09 09:38:18;;;;;;;5.80;2.63;;;;;;;;;;5038000;28;20017;-72
2023/11/09 09:40:43;;;;;;;5.57;1.60;;;;;;;;;;5030877;28;20029;-72
2023/11/09 09:43:13;;;;;;;5.32;2.70;;;;;;;;;;5030671;28;20041;-72
2023/11/09 09:45:40;;;;;;;4.20;1.52;;;;;;;;;;5034005;28;20036;-72
2023/11/09 09:48:08;;;;;;;5.35;1.70;;;;;;;;;;5036346;28;20016;-72
2023/11/09 09:50:35;;;;;;;5.20;1.83;;;;;;;;;;5031627;28;20431;-72
2023/11/09 09:53:00;;;;;;;6.28;1.73;;;;;;;;;;5032849;28;20148;-71
2023/11/09 09:55:27;;;;;;;4.10;1.27;;;;;;;;;;5043229;28;20096;-71
2023/11/09 09:57:52;;;;;;;4.43;1.20;;;;;;;;;;5036302;28;20024;-71
2023/11/09 10:00:26;;;;;;;3.35;1.23;;;;;;;;;;5032594;28;20083;-70
2023/11/09 10:02:51;;;;;;;3.70;1.40;;;;;;;;;;5062563;28;20575;-72
2023/11/09 10:05:17;;;;;;;5.40;1.50;;;;;;;;;;5031236;28;20021;-70
2023/11/09 10:07:59;;;;;;;5.32;1.73;;;;;;;;;;5029163;28;20014;-71
2023/11/09 10:10:26;;;;;;;4.15;1.30;;;;;;;;;;5032044;28;20021;-69
2023/11/09 10:12:55;;;;;;;4.10;1.40;;;;;;;;;;5034125;28;20009;-69
2023/11/09 10:15:24;;;;;;;5.30;1.33;;;;;;;;;;5023926;28;20633;-70
2023/11/09 10:17:51;;;;;;;4.30;1.40;;;;;;;;;;5029305;28;20096;-70
2023/11/09 10:20:16;;;;;;;3.92;1.30;;;;;;;;;;5038525;28;20029;-70
2023/11/09 10:22:43;;;;;;;5.75;1.50;;;;;;;;;;5033368;28;20549;-70
2023/11/09 10:25:11;;;;;;;5.07;1.63;;;;;;;;;;5029351;28;20057;-70
2023/11/09 10:27:37;;;;;;;5.10;1.50;;;;;;;;;;5028600;28;20013;-69
2023/11/09 10:30:02;;;;;;;4.50;1.60;;;;;;;;;;5037301;28;20538;-70
2023/11/09 10:32:31;;;;;;;4.22;1.40;;;;;;;;;;5035148;28;20028;-69
2023/11/09 10:34:57;;;;;;;5.10;1.58;;;;;;;;;;5035743;28;20096;-69
2023/11/09 10:37:23;;;;;;;4.80;1.40;;;;;;;;;;5031195;28;20046;-69
2023/11/09 10:39:52;;;;;;;4.75;1.48;;;;;;;;;;5033610;28;20513;-70
2023/11/09 10:42:19;;;;;;;4.03;1.52;;;;;;;;;;5032152;28;20009;-69
2023/11/09 10:44:45;;;;;;;4.53;1.50;;;;;;;;;;5033423;28;20029;-69
2023/11/09 10:47:13;;;;;;;3.60;1.17;;;;;;;;;;5036208;28;20763;-69
2023/11/09 10:49:43;;;;;;;4.00;1.38;;;;;;;;;;5033443;28;20017;-69
2023/11/09 10:52:09;;;;;;;4.97;1.90;;;;;;;;;;5037078;28;20048;-69
2023/11/09 10:54:38;;;;;;;4.03;1.55;;;;;;;;;;5030568;28;20471;-69
2023/11/09 10:57:05;;;;;;;3.72;1.60;;;;;;;;;;5030456;28;20391;-69
2023/11/09 10:59:30;;;;;;;4.60;1.60;;;;;;;;;;5036318;28;20550;-70
2023/11/09 11:01:59;;;;;;;6.25;1.50;;;;;;;;;;5031424;28;20175;-70
2023/11/09 11:04:25;;;;;;;4.00;1.20;;;;;;;;;;5035620;28;20040;-69
2023/11/09 11:06:56;;;;;;;3.75;1.30;;;;;;;;;;5037013;28;20135;-70
2023/11/09 11:09:27;;;;;;;4.13;1.40;;;;;;;;;;5031566;28;20020;-69
2023/11/09 11:12:01;;;;;;;4.38;1.60;;;;;;;;;;5028880;28;20124;-69
2023/11/09 11:14:28;;;;;;;4.47;1.40;;;;;;;;;;5037496;28;20555;-69
2023/11/09 11:17:12;;;;;;;4.30;1.30;;;;;;;;;;5036650;28;20013;-69
2023/11/09 11:20:03;;;;;;;5.03;1.52;;;;;;;;;;5027247;28;20133;-69
2023/11/09 11:22:48;;;;;;;4.40;1.48;;;;;;;;;;5030939;28;20039;-69
2023/11/09 11:25:30;;;;;;;4.25;1.42;;;;;;;;;;5029245;28;20065;-69
2023/11/09 11:28:00;;;;;;;5.88;1.60;;;;;;;;;;5031355;28;20027;-69
2023/11/09 11:30:27;;;;;;;4.53;1.60;;;;;;;;;;5031341;28;20025;-68
2023/11/09 11:32:55;;;;;;;4.65;1.40;;;;;;;;;;5037871;28;20040;-69
2023/11/09 11:35:33;;;;;;;5.07;1.58;;;;;;;;;;5039992;28;20378;-69
2023/11/09 11:38:16;;;;;;;4.05;1.45;;;;;;;;;;5038406;28;20020;-69
2023/11/09 11:40:42;;;;;;;4.07;1.40;;;;;;;;;;5030117;28;20032;-69
2023/11/09 11:43:08;;;;;;;4.15;1.70;;;;;;;;;;5030206;28;20033;-69
2023/11/09 11:45:40;;;;;;;5.07;1.60;;;;;;;;;;5037101;28;20153;-69
2023/11/09 11:48:19;;;;;;;4.53;1.60;;;;;;;;;;5032635;28;20036;-69
2023/11/09 11:50:47;;;;;;;5.93;2.38;;;;;;;;;;5034502;28;20014;-69
2023/11/09 11:53:28;;;;;;;6.43;1.88;;;;;;;;;;5032579;28;20155;-69
2023/11/09 11:56:02;;;;;;;4.20;1.45;;;;;;;;;;5039970;28;20040;-69
2023/11/09 11:58:57;;;;;;;4.05;1.52;;;;;;;;;;5033740;28;20009;-69
2023/11/09 12:01:27;;;;;;;3.97;1.27;;;;;;;;;;5021528;28;20045;-69
2023/11/09 12:03:58;;;;;;;4.03;1.50;;;;;;;;;;5030377;28;20028;-69
2023/11/09 12:06:27;;;;;;;3.55;1.40;;;;;;;;;;5037096;28;20096;-69
2023/11/09 12:08:55;;;;;;;3.42;1.30;;;;;;;;;;5039096;28;20009;-68
2023/11/09 12:11:24;;;;;;;5.78;1.55;;;;;;;;;;5035596;28;20427;-69
2023/11/09 12:13:51;;;;;;;3.88;1.40;;;;;;;;;;5027439;28;20166;-69
2023/11/09 12:16:18;;;;;;;4.80;1.90;;;;;;;;;;5030371;28;20032;-69
2023/11/09 12:18:47;;;;;;;5.88;1.90;;;;;;;;;;5031955;28;20013;-68
2023/11/09 12:21:13;;;;;;;5.10;2.10;;;;;;;;;;5038127;28;20033;-69
2023/11/09 12:23:42;;;;;;;4.18;1.70;;;;;;;;;;5028645;28;20380;-69
2023/11/09 12:26:07;;;;;;;5.05;1.70;;;;;;;;;;5037100;28;20032;-69
2023/11/09 12:28:33;;;;;;;4.30;1.70;;;;;;;;;;5032099;28;20101;-69
2023/11/09 12:30:59;;;;;;;7.05;1.60;;;;;;;;;;5029824;28;20107;-69
2023/11/09 12:33:27;;;;;;;4.40;1.60;;;;;;;;;;5032341;28;20131;-67
2023/11/09 12:35:59;;;;;;;4.03;1.55;;;;;;;;;;5035531;28;20044;-69
2023/11/09 12:38:24;;;;;;;5.50;1.75;;;;;;;;;;5032796;28;20685;-68
2023/11/09 12:40:50;;;;;;;5.93;2.20;;;;;;;;;;5029493;28;20040;-69
2023/11/09 12:43:15;;;;;;;5.82;2.20;;;;;;;;;;5014876;28;20087;-69
2023/11/09 12:45:46;;;;;;;5.40;2.20;;;;;;;;;;5025602;28;20120;-69
2023/11/09 12:48:14;;;;;;;4.20;1.70;;;;;;;;;;5035037;28;20041;-69
2023/11/09 12:50:39;;;;;;;4.60;1.88;;;;;;;;;;5029617;28;20013;-68
2023/11/09 12:53:05;;;;;;;4.18;1.70;;;;;;;;;;5025495;28;20029;-70
2023/11/09 12:55:32;;;;;;;4.85;1.50;;;;;;;;;;5028711;28;20028;-68
2023/11/09 12:58:02;;;;;;;4.95;1.70;;;;;;;;;;5044137;28;20028;-71
2023/11/09 13:00:29;;;;;;;4.32;1.80;;;;;;;;;;5035733;28;20012;-69
2023/11/09 13:02:57;;;;;;;3.90;1.45;;;;;;;;;;5036232;28;20033;-69
2023/11/09 13:05:31;;;;;;;6.13;1.90;;;;;;;;;;5034539;28;20056;-69
2023/11/09 13:08:02;;;;;;;4.47;1.90;;;;;;;;;;5037089;28;20472;-69
2023/11/09 13:10:28;;;;;;;4.53;1.77;;;;;;;;;;5034616;28;20020;-69
2023/11/09 13:12:54;;;;;;;4.70;1.55;;;;;;;;;;5030858;28;20029;-69
2023/11/09 13:15:38;;;;;;;4.03;1.60;;;;;;;;;;5037024;28;20017;-69
2023/11/09 13:18:04;;;;;;;4.05;1.63;;;;;;;;;;5040956;28;20016;-69
2023/11/09 13:20:37;;;;;;;3.60;1.42;;;;;;;;;;5032872;28;20021;-69
2023/11/09 13:23:06;;;;;;;5.38;1.77;;;;;;;;;;5026065;28;21011;-69
2023/11/09 13:25:33;;;;;;;4.28;1.50;;;;;;;;;;5026010;28;20111;-69
2023/11/09 13:28:00;;;;;;;3.70;1.35;;;;;;;;;;5037170;28;20016;-70
2023/11/09 13:30:27;;;;;;;4.53;1.58;;;;;;;;;;5029418;28;20025;-69
2023/11/09 13:32:57;;;;;;;4.00;1.67;;;;;;;;;;5029180;28;20117;-70
2023/11/09 13:35:31;;;;;;;4.47;1.80;;;;;;;;;;5033643;28;20027;-70
2023/11/09 13:38:00;;;;;;;4.50;1.80;;;;;;;;;;5035482;28;20533;-71
2023/11/09 13:43:07;;;;;;;4.55;1.92;;;;;;;;;;5032110;28;20392;-72
2023/11/09 13:45:35;;;;;;;5.55;2.05;;;;;;;;;;5030009;28;20036;-74
2023/11/09 13:48:09;;;;;;;4.38;1.70;;;;;;;;;;5028522;28;20556;-74
2023/11/09 13:50:45;;;;;;;4.43;1.90;;;;;;;;;;5033006;28;20057;-74
2023/11/09 13:53:29;;;;;;;5.63;2.10;;;;;;;;;;5028341;28;20166;-74
2023/11/09 13:58:36;;;;;;;5.18;2.20;;;;;;;;;;5035262;28;20105;-75
2023/11/09 14:01:01;;;;;;;5.25;2.30;;;;;;;;;;5030536;28;20126;-75
2023/11/09 14:03:35;;;;;;;6.45;3.28;;;;;;;;;;5039644;28;20626;-75
2023/11/09 14:06:01;;;;;;;6.43;2.70;;;;;;;;;;5028909;28;20149;-75
2023/11/09 14:08:27;;;;;;;10.15;2.50;;;;;;;;;;5039618;28;20408;-74
2023/11/09 14:10:55;;;;;;;5.03;1.98;;;;;;;;;;5025436;28;20017;-71
2023/11/09 14:13:28;;;;;;;6.10;2.00;;;;;;;;;;5030229;28;20016;-74
2023/11/09 14:19:00;;;;;;;6.03;2.42;;;;;;;;;;5034385;28;20031;-71
2023/11/09 14:21:32;;;;;;;6.67;2.53;;;;;;;;;;5033996;28;20025;-71
2023/11/09 14:23:58;;;;;;;7.50;3.13;;;;;;;;;;5030092;28;20027;-72
2023/11/09 14:26:27;;;;;;;7.10;2.40;;;;;;;;;;5031358;28;20021;-70
2023/11/09 14:28:59;;;;;;;6.45;1.98;;;;;;;;;;5033270;28;20151;-71
2023/11/09 14:31:24;;;;;;;4.88;2.10;;;;;;;;;;5031260;28;20547;-70
2023/11/09 14:33:54;;;;;;;6.20;2.45;;;;;;;;;;5021515;28;20094;-69
2023/11/09 14:36:19;;;;;;;4.82;2.13;;;;;;;;;;5025437;28;20190;-68
2023/11/09 14:38:49;;;;;;;6.85;2.30;;;;;;;;;;5028990;28;20080;-67
2023/11/09 14:41:16;;;;;;;5.50;2.03;;;;;;;;;;5025103;28;20021;-67
2023/11/09 14:43:42;;;;;;;6.93;2.08;;;;;;;;;;5028839;28;20061;-70
2023/11/09 14:46:17;;;;;;;4.75;2.22;;;;;;;;;;5033212;28;20066;-67
2023/11/09 14:48:45;;;;;;;6.20;2.25;;;;;;;;;;5060407;28;20029;-68
2023/11/09 14:51:20;;;;;;;4.63;2.13;;;;;;;;;;5028303;28;20107;-70
2023/11/09 14:53:46;;;;;;;5.65;2.00;;;;;;;;;;5031972;28;20021;-69
2023/11/09 14:56:13;;;;;;;4.68;1.67;;;;;;;;;;5030781;28;20840;-69
2023/11/09 14:58:43;;;;;;;5.75;2.10;;;;;;;;;;5026664;28;20028;-69